createdAt,value
2023-04-03T00:00:17.986Z,0.61
2023-04-03T00:01:19.005Z,0.60
2023-04-03T00:02:19.117Z,0.60
2023-04-03T00:03:19.189Z,0.59
2023-04-03T00:04:19.121Z,0.60
2023-04-03T00:05:19.113Z,0.59
2023-04-03T00:06:18.130Z,0.61
2023-04-03T00:07:18.167Z,0.60
2023-04-03T00:08:19.795Z,0.59
2023-04-03T00:09:19.284Z,0.57
2023-04-03T00:10:19.251Z,0.60
2023-04-03T00:11:19.263Z,0.59
2023-04-03T00:12:19.279Z,0.60
2023-04-03T00:13:19.298Z,0.60
2023-04-03T00:14:19.346Z,0.61
2023-04-03T00:15:19.413Z,0.62
2023-04-03T00:16:19.395Z,0.61
2023-04-03T00:17:19.431Z,0.62
2023-04-03T00:18:19.480Z,0.62
2023-04-03T00:19:19.487Z,0.63
2023-04-03T00:20:19.531Z,0.61
2023-04-03T00:21:18.532Z,0.63
2023-04-03T00:22:19.551Z,0.65
2023-04-03T00:23:19.609Z,0.64
2023-04-03T00:24:19.644Z,0.64
2023-04-03T00:25:19.659Z,0.63
2023-04-03T00:26:18.670Z,0.62
2023-04-03T00:27:19.732Z,0.62
2023-04-03T00:28:19.705Z,0.65
2023-04-03T00:29:18.777Z,0.64
2023-04-03T00:30:19.800Z,0.64
2023-04-03T00:31:19.863Z,0.64
2023-04-03T00:32:19.849Z,0.63
2023-04-03T00:33:19.870Z,0.63
2023-04-03T00:34:19.900Z,0.64
2023-04-03T00:35:19.995Z,0.62
2023-04-03T00:36:19.053Z,0.64
2023-04-03T00:37:20.021Z,0.64
2023-04-03T00:38:20.040Z,0.64
2023-04-03T00:39:20.053Z,0.64
2023-04-03T00:40:20.104Z,0.66
2023-04-03T00:41:20.086Z,0.65
2023-04-03T00:42:20.111Z,0.63
2023-04-03T00:43:19.138Z,0.62
2023-04-03T00:44:19.190Z,0.62
2023-04-03T00:45:20.249Z,0.63
2023-04-03T00:46:19.244Z,0.65
2023-04-03T00:47:20.286Z,0.62
2023-04-03T00:48:20.298Z,0.63
2023-04-03T00:49:19.331Z,0.62
2023-04-03T00:50:19.320Z,0.61
2023-04-03T00:51:20.399Z,0.60
2023-04-03T00:52:20.401Z,0.61
2023-04-03T00:53:20.412Z,0.62
2023-04-03T00:54:19.447Z,0.62
2023-04-03T00:55:19.457Z,0.62
2023-04-03T00:56:20.500Z,0.62
2023-04-03T00:57:20.563Z,0.62
2023-04-03T00:58:19.545Z,0.63
2023-04-03T00:59:20.498Z,0.62
2023-04-03T01:00:19.511Z,0.62
2023-04-03T01:01:20.620Z,0.61
2023-04-03T01:02:20.552Z,0.62
2023-04-03T01:03:20.541Z,0.62
2023-04-03T01:04:20.593Z,0.63
2023-04-03T01:05:19.602Z,0.62
2023-04-03T01:06:20.615Z,0.62
2023-04-03T01:07:19.669Z,0.62
2023-04-03T01:08:20.624Z,0.61
2023-04-03T01:09:19.670Z,0.60
2023-04-03T01:10:20.701Z,0.62
2023-04-03T01:11:20.690Z,0.61
2023-04-03T01:12:20.744Z,0.62
2023-04-03T01:13:20.738Z,0.62
2023-04-03T01:14:20.737Z,0.62
2023-04-03T01:15:20.741Z,0.61
2023-04-03T01:16:20.858Z,0.61
2023-04-03T01:17:20.811Z,0.61
2023-04-03T01:18:20.826Z,0.63
2023-04-03T01:19:20.863Z,0.63
2023-04-03T01:20:20.860Z,0.62
2023-04-03T01:21:20.879Z,0.62
2023-04-03T01:22:20.915Z,0.62
2023-04-03T01:23:20.950Z,0.60
2023-04-03T01:24:20.956Z,0.61
2023-04-03T01:25:20.977Z,0.62
2023-04-03T01:26:20.991Z,0.62
2023-04-03T01:27:20.983Z,0.61
2023-04-03T01:28:21.041Z,0.61
2023-04-03T01:29:21.032Z,0.61
2023-04-03T01:30:21.054Z,0.61
2023-04-03T01:31:21.107Z,0.61
2023-04-03T01:32:21.152Z,0.62
2023-04-03T01:33:21.089Z,0.60
2023-04-03T01:34:21.136Z,0.60
2023-04-03T01:35:20.122Z,0.61
2023-04-03T01:36:21.140Z,0.62
2023-04-03T01:37:20.156Z,0.63
2023-04-03T01:38:21.157Z,0.61
2023-04-03T01:39:21.188Z,0.60
2023-04-03T01:40:21.206Z,0.61
2023-04-03T01:41:20.280Z,0.61
2023-04-03T01:42:21.262Z,0.59
2023-04-03T01:43:20.249Z,0.60
2023-04-03T01:44:20.280Z,0.59
2023-04-03T01:45:21.308Z,0.60
2023-04-03T01:46:21.295Z,0.59
2023-04-03T01:47:21.361Z,0.61
2023-04-03T01:48:21.319Z,0.60
2023-04-03T01:49:21.338Z,0.61
2023-04-03T01:50:21.330Z,0.61
2023-04-03T01:51:21.364Z,0.59
2023-04-03T01:52:21.381Z,0.61
2023-04-03T01:53:21.397Z,0.63
2023-04-03T01:54:21.407Z,0.62
2023-04-03T01:55:21.471Z,0.60
2023-04-03T01:56:21.484Z,0.60
2023-04-03T01:57:21.519Z,0.59
2023-04-03T01:58:21.520Z,0.60
2023-04-03T01:59:21.508Z,0.59
2023-04-03T02:00:20.579Z,0.60
2023-04-03T02:01:21.619Z,0.61
2023-04-03T02:02:20.595Z,0.61
2023-04-03T02:03:21.612Z,0.61
2023-04-03T02:04:20.666Z,0.60
2023-04-03T02:05:21.694Z,0.61
2023-04-03T02:06:21.677Z,0.62
2023-04-03T02:07:21.663Z,0.62
2023-04-03T02:08:21.725Z,0.61
2023-04-03T02:09:21.709Z,0.62
2023-04-03T02:10:21.898Z,0.61
2023-04-03T02:11:21.786Z,0.60
2023-04-03T02:12:21.773Z,0.59
2023-04-03T02:13:20.868Z,0.59
2023-04-03T02:14:20.799Z,0.60
2023-04-03T02:15:21.834Z,0.60
2023-04-03T02:16:21.913Z,0.60
2023-04-03T02:17:21.957Z,0.60
2023-04-03T02:18:20.908Z,0.60
2023-04-03T02:19:20.892Z,0.60
2023-04-03T02:20:20.939Z,0.57
2023-04-03T02:21:22.023Z,0.59
2023-04-03T02:22:21.956Z,0.59
2023-04-03T02:23:21.996Z,0.60
2023-04-03T02:24:20.986Z,0.59
2023-04-03T02:25:20.984Z,0.59
2023-04-03T02:26:22.042Z,0.60
2023-04-03T02:27:22.032Z,0.58
2023-04-03T02:28:22.101Z,0.60
2023-04-03T02:29:21.087Z,0.58
2023-04-03T02:30:22.106Z,0.60
2023-04-03T02:31:21.132Z,0.59
2023-04-03T02:32:21.156Z,0.59
2023-04-03T02:33:21.148Z,0.59
2023-04-03T02:34:21.187Z,0.58
2023-04-03T02:35:21.358Z,0.59
2023-04-03T02:36:21.256Z,0.59
2023-04-03T02:37:22.370Z,0.60
2023-04-03T02:38:22.286Z,0.61
2023-04-03T02:39:22.326Z,0.59
2023-04-03T02:40:22.308Z,0.60
2023-04-03T02:41:21.365Z,0.60
2023-04-03T02:42:22.376Z,0.61
2023-04-03T02:43:22.383Z,0.59
2023-04-03T02:44:22.439Z,0.60
2023-04-03T02:45:21.404Z,0.59
2023-04-03T02:46:22.528Z,0.59
2023-04-03T02:47:21.460Z,0.60
2023-04-03T02:48:21.497Z,0.59
2023-04-03T02:49:21.499Z,0.60
2023-04-03T02:50:22.509Z,0.59
2023-04-03T02:51:22.568Z,0.60
2023-04-03T02:52:22.568Z,0.59
2023-04-03T02:53:22.591Z,0.58
2023-04-03T02:54:22.607Z,0.59
2023-04-03T02:55:22.608Z,0.59
2023-04-03T02:56:22.646Z,0.60
2023-04-03T02:57:21.722Z,0.59
2023-04-03T02:58:22.709Z,0.58
2023-04-03T02:59:22.720Z,0.60
2023-04-03T03:00:22.747Z,0.59
2023-04-03T03:01:22.830Z,0.59
2023-04-03T03:02:22.808Z,0.59
2023-04-03T03:03:21.819Z,0.61
2023-04-03T03:04:22.923Z,0.60
2023-04-03T03:05:22.930Z,0.61
2023-04-03T03:06:23.002Z,0.60
2023-04-03T03:07:23.046Z,0.58
2023-04-03T03:08:22.971Z,0.59
2023-04-03T03:09:22.998Z,0.58
2023-04-03T03:10:23.003Z,0.59
2023-04-03T03:11:23.038Z,0.59
2023-04-03T03:12:23.076Z,0.58
2023-04-03T03:13:23.086Z,0.58
2023-04-03T03:14:23.124Z,0.57
2023-04-03T03:15:23.144Z,0.58
2023-04-03T03:16:22.222Z,0.58
2023-04-03T03:17:23.222Z,0.60
2023-04-03T03:18:23.188Z,0.59
2023-04-03T03:19:23.226Z,0.59
2023-04-03T03:20:23.288Z,0.59
2023-04-03T03:21:23.292Z,0.60
2023-04-03T03:22:23.303Z,0.58
2023-04-03T03:23:23.327Z,0.60
2023-04-03T03:24:23.350Z,0.57
2023-04-03T03:25:23.392Z,0.58
2023-04-03T03:26:22.429Z,0.57
2023-04-03T03:27:22.434Z,0.58
2023-04-03T03:28:23.483Z,0.58
2023-04-03T03:29:23.509Z,0.59
2023-04-03T03:30:23.555Z,0.62
2023-04-03T03:31:23.614Z,0.59
2023-04-03T03:32:22.566Z,0.59
2023-04-03T03:33:22.597Z,0.60
2023-04-03T03:34:23.672Z,0.60
2023-04-03T03:35:22.650Z,0.59
2023-04-03T03:36:23.761Z,0.59
2023-04-03T03:37:22.688Z,0.59
2023-04-03T03:38:23.705Z,0.59
2023-04-03T03:39:22.755Z,0.59
2023-04-03T03:40:23.759Z,0.59
2023-04-03T03:41:23.817Z,0.58
2023-04-03T03:42:23.816Z,0.59
2023-04-03T03:43:23.842Z,0.60
2023-04-03T03:44:23.879Z,0.59
2023-04-03T03:45:23.922Z,0.60
2023-04-03T03:46:23.948Z,0.61
2023-04-03T03:47:23.986Z,0.60
2023-04-03T03:48:24.006Z,0.59
2023-04-03T03:49:24.018Z,0.61
2023-04-03T03:50:24.048Z,0.59
2023-04-03T03:51:24.087Z,0.60
2023-04-03T03:52:23.148Z,0.59
2023-04-03T03:53:23.159Z,0.58
2023-04-03T03:54:24.173Z,0.59
2023-04-03T03:55:24.184Z,0.57
2023-04-03T03:56:23.268Z,0.58
2023-04-03T03:57:24.346Z,0.59
2023-04-03T03:58:24.289Z,0.58
2023-04-03T03:59:23.346Z,0.59
2023-04-03T04:00:23.369Z,0.56
2023-04-03T04:01:24.372Z,0.59
2023-04-03T04:02:23.533Z,0.57
2023-04-03T04:03:23.561Z,0.58
2023-04-03T04:04:23.490Z,0.58
2023-04-03T04:05:24.487Z,0.58
2023-04-03T04:06:24.499Z,0.59
2023-04-03T04:07:24.539Z,0.57
2023-04-03T04:08:24.626Z,0.58
2023-04-03T04:09:24.612Z,0.58
2023-04-03T04:10:24.636Z,0.57
2023-04-03T04:11:24.654Z,0.57
2023-04-03T04:12:24.679Z,0.58
2023-04-03T04:13:24.727Z,0.58
2023-04-03T04:14:24.762Z,0.59
2023-04-03T04:15:23.805Z,0.57
2023-04-03T04:16:23.841Z,0.58
2023-04-03T04:17:24.885Z,0.56
2023-04-03T04:18:24.882Z,0.57
2023-04-03T04:19:24.900Z,0.58
2023-04-03T04:20:24.964Z,0.57
2023-04-03T04:21:23.977Z,0.58
2023-04-03T04:22:23.984Z,0.57
2023-04-03T04:23:25.018Z,0.58
2023-04-03T04:24:25.072Z,0.56
2023-04-03T04:25:25.094Z,0.57
2023-04-03T04:26:24.120Z,0.56
2023-04-03T04:27:24.118Z,0.57
2023-04-03T04:28:24.161Z,0.57
2023-04-03T04:29:24.197Z,0.57
2023-04-03T04:30:25.219Z,0.57
2023-04-03T04:31:25.378Z,0.57
2023-04-03T04:32:25.272Z,0.57
2023-04-03T04:33:25.278Z,0.56
2023-04-03T04:34:25.322Z,0.57
2023-04-03T04:35:25.375Z,0.57
2023-04-03T04:36:24.522Z,0.57
2023-04-03T04:37:25.413Z,0.56
2023-04-03T04:38:25.483Z,0.55
2023-04-03T04:39:24.484Z,0.56
2023-04-03T04:40:25.506Z,0.56
2023-04-03T04:41:25.558Z,0.56
2023-04-03T04:42:25.564Z,0.57
2023-04-03T04:43:25.597Z,0.57
2023-04-03T04:44:25.622Z,0.57
2023-04-03T04:45:25.649Z,0.57
2023-04-03T04:46:25.700Z,0.56
2023-04-03T04:47:25.711Z,0.56
2023-04-03T04:48:25.707Z,0.58
2023-04-03T04:49:24.712Z,0.58
2023-04-03T04:50:25.741Z,0.57
2023-04-03T04:51:25.782Z,0.58
2023-04-03T04:52:25.818Z,0.57
2023-04-03T04:53:25.846Z,0.57
2023-04-03T04:54:25.831Z,0.57
2023-04-03T04:55:25.868Z,0.57
2023-04-03T04:56:25.922Z,0.57
2023-04-03T04:57:24.973Z,0.57
2023-04-03T04:58:25.964Z,0.57
2023-04-03T04:59:25.985Z,0.57
2023-04-03T05:00:26.017Z,0.58
2023-04-03T05:01:26.163Z,0.58
2023-04-03T05:02:25.143Z,0.58
2023-04-03T05:03:25.155Z,0.58
2023-04-03T05:04:26.258Z,0.58
2023-04-03T05:05:26.209Z,0.57
2023-04-03T05:06:26.254Z,0.58
2023-04-03T05:07:26.247Z,0.57
2023-04-03T05:08:26.304Z,0.56
2023-04-03T05:09:26.317Z,0.57
2023-04-03T05:10:26.366Z,0.58
2023-04-03T05:11:26.398Z,0.57
2023-04-03T05:12:25.445Z,0.55
2023-04-03T05:13:26.488Z,0.55
2023-04-03T05:14:26.482Z,0.57
2023-04-03T05:15:25.543Z,0.57
2023-04-03T05:16:25.597Z,0.56
2023-04-03T05:17:26.622Z,0.56
2023-04-03T05:18:26.615Z,0.55
2023-04-03T05:19:25.671Z,0.56
2023-04-03T05:20:26.699Z,0.56
2023-04-03T05:21:26.723Z,0.56
2023-04-03T05:22:26.754Z,0.56
2023-04-03T05:23:26.781Z,0.55
2023-04-03T05:24:26.843Z,0.55
2023-04-03T05:25:27.256Z,0.57
2023-04-03T05:26:26.922Z,0.56
2023-04-03T05:27:26.936Z,0.57
2023-04-03T05:28:26.997Z,0.57
2023-04-03T05:29:26.998Z,0.57
2023-04-03T05:30:27.024Z,0.58
2023-04-03T05:31:27.068Z,0.57
2023-04-03T05:32:26.190Z,0.57
2023-04-03T05:33:27.227Z,0.57
2023-04-03T05:34:27.165Z,0.58
2023-04-03T05:35:27.210Z,0.57
2023-04-03T05:36:27.270Z,0.56
2023-04-03T05:37:27.287Z,0.55
2023-04-03T05:38:27.325Z,0.55
2023-04-03T05:39:27.365Z,0.57
2023-04-03T05:40:27.383Z,0.55
2023-04-03T05:41:27.487Z,0.56
2023-04-03T05:42:26.462Z,0.57
2023-04-03T05:43:26.491Z,0.56
2023-04-03T05:44:27.596Z,0.57
2023-04-03T05:45:27.599Z,0.57
2023-04-03T05:46:26.700Z,0.56
2023-04-03T05:47:26.685Z,0.58
2023-04-03T05:48:27.701Z,0.55
2023-04-03T05:49:27.753Z,0.55
2023-04-03T05:50:27.753Z,0.55
2023-04-03T05:51:27.819Z,0.56
2023-04-03T05:52:27.852Z,0.57
2023-04-03T05:53:27.862Z,0.58
2023-04-03T05:54:26.885Z,0.57
2023-04-03T05:55:28.065Z,0.57
2023-04-03T05:56:26.968Z,0.56
2023-04-03T05:57:28.073Z,0.57
2023-04-03T05:58:28.075Z,0.56
2023-04-03T05:59:28.103Z,0.56
2023-04-03T06:00:28.167Z,0.56
2023-04-03T06:01:28.361Z,0.56
2023-04-03T06:02:28.291Z,0.57
2023-04-03T06:03:28.401Z,0.56
2023-04-03T06:04:28.424Z,0.56
2023-04-03T06:05:28.369Z,0.57
2023-04-03T06:06:28.393Z,0.57
2023-04-03T06:07:27.418Z,0.56
2023-04-03T06:08:27.439Z,0.57
2023-04-03T06:09:28.507Z,0.57
2023-04-03T06:10:28.533Z,0.57
2023-04-03T06:11:28.588Z,0.57
2023-04-03T06:12:28.593Z,0.57
2023-04-03T06:13:27.635Z,0.56
2023-04-03T06:14:28.688Z,0.57
2023-04-03T06:15:28.704Z,0.56
2023-04-03T06:16:28.824Z,0.56
2023-04-03T06:17:28.797Z,0.57
2023-04-03T06:18:27.806Z,0.57
2023-04-03T06:19:28.852Z,0.59
2023-04-03T06:20:28.926Z,0.59
2023-04-03T06:21:28.976Z,0.57
2023-04-03T06:22:28.964Z,0.57
2023-04-03T06:23:29.260Z,0.55
2023-04-03T06:24:29.035Z,0.56
2023-04-03T06:25:28.103Z,0.56
2023-04-03T06:26:29.141Z,0.56
2023-04-03T06:27:28.166Z,0.57
2023-04-03T06:28:29.202Z,0.57
2023-04-03T06:29:29.248Z,0.56
2023-04-03T06:30:29.280Z,0.56
2023-04-03T06:31:28.367Z,0.57
2023-04-03T06:32:28.416Z,0.56
2023-04-03T06:33:29.398Z,0.57
2023-04-03T06:34:29.455Z,0.56
2023-04-03T06:35:29.501Z,0.57
2023-04-03T06:36:28.900Z,0.56
2023-04-03T06:37:29.769Z,0.56
2023-04-03T06:38:29.613Z,0.56
2023-04-03T06:39:29.697Z,0.56
2023-04-03T06:40:29.720Z,0.56
2023-04-03T06:41:28.767Z,0.56
2023-04-03T06:42:29.752Z,0.56
2023-04-03T06:43:29.833Z,0.55
2023-04-03T06:44:29.840Z,0.56
2023-04-03T06:45:30.469Z,0.56
2023-04-03T06:46:30.478Z,0.55
2023-04-03T06:47:28.969Z,0.57
2023-04-03T06:48:30.015Z,0.56
2023-04-03T06:49:30.034Z,0.57
2023-04-03T06:50:29.204Z,0.57
2023-04-03T06:51:29.136Z,0.57
2023-04-03T06:52:30.180Z,0.58
2023-04-03T06:53:30.226Z,0.59
2023-04-03T06:54:30.286Z,0.58
2023-04-03T06:55:29.361Z,0.57
2023-04-03T06:56:30.353Z,0.56
2023-04-03T06:57:30.488Z,0.56
2023-04-03T06:58:30.490Z,0.56
2023-04-03T06:59:30.498Z,0.55
2023-04-03T07:00:30.581Z,0.57
2023-04-03T07:01:30.659Z,0.56
2023-04-03T07:02:30.632Z,0.56
2023-04-03T07:03:29.694Z,0.56
2023-04-03T07:04:30.740Z,0.58
2023-04-03T07:05:30.759Z,0.58
2023-04-03T07:06:30.844Z,0.58
2023-04-03T07:07:30.839Z,0.57
2023-04-03T07:08:30.878Z,0.56
2023-04-03T07:09:30.937Z,0.56
2023-04-03T07:10:30.966Z,0.57
2023-04-03T07:11:31.077Z,0.57
2023-04-03T07:12:31.064Z,0.57
2023-04-03T07:13:30.089Z,0.58
2023-04-03T07:14:31.146Z,0.58
2023-04-03T07:15:30.193Z,0.58
2023-04-03T07:16:31.345Z,0.58
2023-04-03T07:17:30.337Z,0.58
2023-04-03T07:18:31.321Z,0.56
2023-04-03T07:19:31.380Z,0.58
2023-04-03T07:20:31.454Z,0.57
2023-04-03T07:21:30.461Z,0.57
2023-04-03T07:22:31.474Z,0.56
2023-04-03T07:23:30.525Z,0.56
2023-04-03T07:24:31.549Z,0.57
2023-04-03T07:25:31.581Z,0.56
2023-04-03T07:26:31.687Z,0.56
2023-04-03T07:27:30.674Z,0.56
2023-04-03T07:28:30.696Z,0.57
2023-04-03T07:29:31.724Z,0.57
2023-04-03T07:30:31.767Z,0.58
2023-04-03T07:31:32.526Z,0.57
2023-04-03T07:32:31.943Z,0.57
2023-04-03T07:33:30.878Z,0.58
2023-04-03T07:34:31.910Z,0.58
2023-04-03T07:35:30.956Z,0.57
2023-04-03T07:36:32.006Z,0.59
2023-04-03T07:37:32.000Z,0.58
2023-04-03T07:38:32.042Z,0.57
2023-04-03T07:39:32.068Z,0.57
2023-04-03T07:40:32.105Z,0.57
2023-04-03T07:41:32.129Z,0.58
2023-04-03T07:42:31.163Z,0.57
2023-04-03T07:43:31.202Z,0.57
2023-04-03T07:44:32.316Z,0.57
2023-04-03T07:45:32.351Z,0.56
2023-04-03T07:46:32.324Z,0.57
2023-04-03T07:47:32.424Z,0.58
2023-04-03T07:48:32.361Z,0.57
2023-04-03T07:49:32.408Z,0.57
2023-04-03T07:50:32.430Z,0.58
2023-04-03T07:51:32.474Z,0.57
2023-04-03T07:52:32.527Z,0.57
2023-04-03T07:53:32.552Z,0.57
2023-04-03T07:54:31.584Z,0.56
2023-04-03T07:55:33.000Z,0.57
2023-04-03T07:56:31.675Z,0.58
2023-04-03T07:57:31.771Z,0.57
2023-04-03T07:58:32.794Z,0.57
2023-04-03T07:59:32.796Z,0.59
2023-04-03T08:00:32.842Z,0.59
2023-04-03T08:01:32.953Z,0.58
2023-04-03T08:02:32.943Z,0.58
2023-04-03T08:03:32.075Z,0.60
2023-04-03T08:04:32.120Z,0.59
2023-04-03T08:05:33.970Z,0.59
2023-04-03T08:06:44.729Z,0.58
2023-04-03T08:07:33.118Z,0.58
2023-04-03T08:08:32.188Z,0.58
2023-04-03T08:09:33.080Z,0.59
2023-04-03T08:10:33.107Z,0.60
2023-04-03T08:11:32.080Z,0.61
2023-04-03T08:12:33.070Z,0.60
2023-04-03T08:13:33.060Z,0.61
2023-04-03T08:14:33.069Z,0.60
2023-04-03T08:15:32.044Z,0.60
2023-04-03T08:16:33.056Z,0.57
2023-04-03T08:17:33.061Z,0.58
2023-04-03T08:18:33.016Z,0.59
2023-04-03T08:19:33.020Z,0.58
2023-04-03T08:20:33.045Z,0.58
2023-04-03T08:21:32.985Z,0.58
2023-04-03T08:22:32.007Z,0.58
2023-04-03T08:23:32.997Z,0.58
2023-04-03T08:24:32.021Z,0.56
2023-04-03T08:25:32.993Z,0.57
2023-04-03T08:26:32.999Z,0.57
2023-04-03T08:27:32.432Z,0.56
2023-04-03T08:28:32.951Z,0.56
2023-04-03T08:29:33.018Z,0.54
2023-04-03T08:30:32.997Z,0.56
2023-04-03T08:31:32.923Z,0.56
2023-04-03T08:32:31.975Z,0.57
2023-04-03T08:33:32.923Z,0.55
2023-04-03T08:34:32.916Z,0.55
2023-04-03T08:35:33.019Z,0.55
2023-04-03T08:36:33.062Z,0.56
2023-04-03T08:37:33.097Z,0.57
2023-04-03T08:38:33.157Z,0.57
2023-04-03T08:39:33.198Z,0.58
2023-04-03T08:40:33.245Z,0.58
2023-04-03T08:41:32.287Z,0.59
2023-04-03T08:42:33.348Z,0.60
2023-04-03T08:43:33.413Z,0.59
2023-04-03T08:44:33.429Z,0.59
2023-04-03T08:45:33.530Z,0.58
2023-04-03T08:46:33.579Z,0.60
2023-04-03T08:47:33.607Z,0.60
2023-04-03T08:48:33.658Z,0.60
2023-04-03T08:49:33.739Z,0.60
2023-04-03T08:50:33.762Z,0.59
2023-04-03T08:51:33.797Z,0.59
2023-04-03T08:52:33.859Z,0.60
2023-04-03T08:53:33.908Z,0.62
2023-04-03T08:54:35.085Z,0.61
2023-04-03T08:55:34.031Z,0.60
2023-04-03T08:56:34.178Z,0.58
2023-04-03T08:57:34.145Z,0.60
2023-04-03T08:58:33.200Z,0.59
2023-04-03T08:59:34.232Z,0.60
2023-04-03T09:00:34.252Z,0.61
2023-04-03T09:01:34.417Z,0.60
2023-04-03T09:02:33.363Z,0.61
2023-04-03T09:03:34.447Z,0.60
2023-04-03T09:04:34.473Z,0.60
2023-04-03T09:05:34.464Z,0.60
2023-04-03T09:06:34.539Z,0.61
2023-04-03T09:07:34.617Z,0.62
2023-04-03T09:08:33.622Z,0.62
2023-04-03T09:09:34.689Z,0.62
2023-04-03T09:10:34.869Z,0.62
2023-04-03T09:11:34.779Z,0.64
2023-04-03T09:12:34.944Z,0.63
2023-04-03T09:13:34.877Z,0.64
2023-04-03T09:14:34.936Z,0.64
2023-04-03T09:15:38.948Z,0.63
2023-04-03T09:16:35.171Z,0.63
2023-04-03T09:17:34.276Z,0.63
2023-04-03T09:18:35.222Z,0.63
2023-04-03T09:19:35.289Z,0.63
2023-04-03T09:20:35.486Z,0.64
2023-04-03T09:21:35.360Z,0.64
2023-04-03T09:22:41.938Z,0.66
2023-04-03T09:23:35.402Z,0.66
2023-04-03T09:24:35.414Z,0.66
2023-04-03T09:25:35.417Z,0.67
2023-04-03T09:26:35.413Z,0.67
2023-04-03T09:27:35.403Z,0.68
2023-04-03T09:28:39.270Z,0.67
2023-04-03T09:29:35.373Z,0.68
2023-04-03T09:30:35.400Z,0.68
2023-04-03T09:31:35.379Z,0.69
2023-04-03T09:32:35.388Z,0.70
2023-04-03T09:33:34.346Z,0.73
2023-04-03T09:34:35.318Z,0.72
2023-04-03T09:35:44.872Z,0.69
2023-04-03T09:36:35.347Z,0.70
2023-04-03T09:37:35.321Z,0.70
2023-04-03T09:38:35.291Z,0.71
2023-04-03T09:39:35.308Z,0.72
2023-04-03T09:40:35.712Z,0.75
2023-04-03T09:41:35.292Z,0.78
2023-04-03T09:42:35.325Z,0.77
2023-04-03T09:43:35.267Z,0.77
2023-04-03T09:44:35.379Z,0.76
2023-04-03T09:45:35.254Z,0.74
2023-04-03T09:46:34.302Z,0.74
2023-04-03T09:47:34.255Z,0.75
2023-04-03T09:48:35.269Z,0.72
2023-04-03T09:49:35.286Z,0.71
2023-04-03T09:50:35.223Z,0.73
2023-04-03T09:51:35.204Z,0.74
2023-04-03T09:52:35.203Z,0.73
2023-04-03T09:53:35.203Z,0.71
2023-04-03T09:54:35.214Z,0.71
2023-04-03T09:55:34.181Z,0.72
2023-04-03T09:56:34.241Z,0.74
2023-04-03T09:57:35.406Z,0.74
2023-04-03T09:58:46.925Z,0.72
2023-04-03T09:59:35.342Z,0.72
2023-04-03T10:00:35.443Z,0.72
2023-04-03T10:01:35.370Z,0.73
2023-04-03T10:02:35.400Z,0.74
2023-04-03T10:03:35.280Z,0.73
2023-04-03T10:04:35.347Z,0.76
2023-04-03T10:05:35.298Z,0.77
2023-04-03T10:06:35.285Z,0.76
2023-04-03T10:07:35.264Z,0.76
2023-04-03T10:08:35.235Z,0.75
2023-04-03T10:09:35.254Z,0.73
2023-04-03T10:10:35.258Z,0.75
2023-04-03T10:11:35.323Z,0.75
2023-04-03T10:12:35.339Z,0.72
2023-04-03T10:13:45.058Z,0.73
2023-04-03T10:14:35.372Z,0.73
2023-04-03T10:15:34.362Z,0.74
2023-04-03T10:16:35.514Z,0.75
2023-04-03T10:17:35.399Z,0.75
2023-04-03T10:18:35.394Z,0.77
2023-04-03T10:19:35.349Z,0.76
2023-04-03T10:20:35.342Z,0.76
2023-04-03T10:21:35.311Z,0.77
2023-04-03T10:22:35.337Z,0.76
2023-04-03T10:23:34.318Z,0.77
2023-04-03T10:24:35.297Z,0.77
2023-04-03T10:25:35.364Z,0.79
2023-04-03T10:26:35.303Z,0.79
2023-04-03T10:27:34.278Z,0.80
2023-04-03T10:28:35.280Z,0.78
2023-04-03T10:29:35.255Z,0.76
2023-04-03T10:30:35.444Z,0.76
2023-04-03T10:31:34.277Z,0.76
2023-04-03T10:32:34.376Z,0.74
2023-04-03T10:33:35.258Z,0.75
2023-04-03T10:34:35.237Z,0.72
2023-04-03T10:35:35.239Z,0.73
2023-04-03T10:36:35.213Z,0.74
2023-04-03T10:37:35.213Z,0.73
2023-04-03T10:38:35.205Z,0.75
2023-04-03T10:39:35.183Z,0.75
2023-04-03T10:40:35.274Z,0.76
2023-04-03T10:41:35.224Z,0.76
2023-04-03T10:42:35.193Z,0.78
2023-04-03T10:43:34.173Z,0.77
2023-04-03T10:44:34.180Z,0.74
2023-04-03T10:45:35.247Z,0.76
2023-04-03T10:46:35.343Z,0.73
2023-04-03T10:47:35.507Z,0.73
2023-04-03T10:48:34.465Z,0.74
2023-04-03T10:49:35.426Z,0.76
2023-04-03T10:50:35.658Z,0.75
2023-04-03T10:51:35.461Z,0.76
2023-04-03T10:52:35.496Z,0.76
2023-04-03T10:53:35.533Z,0.78
2023-04-03T10:54:35.583Z,0.76
2023-04-03T10:55:35.617Z,0.74
2023-04-03T10:56:34.655Z,0.73
2023-04-03T10:57:35.816Z,0.76
2023-04-03T10:58:35.792Z,0.74
2023-04-03T10:59:35.791Z,0.73
2023-04-03T11:00:36.058Z,0.73
2023-04-03T11:01:35.886Z,0.75
2023-04-03T11:02:35.963Z,0.74
2023-04-03T11:03:36.033Z,0.73
2023-04-03T11:04:35.098Z,0.75
2023-04-03T11:05:35.024Z,0.74
2023-04-03T11:06:36.020Z,0.73
2023-04-03T11:07:36.057Z,0.73
2023-04-03T11:08:36.182Z,0.69
2023-04-03T11:09:36.121Z,0.69
2023-04-03T11:10:35.240Z,0.68
2023-04-03T11:11:36.276Z,0.68
2023-04-03T11:12:36.244Z,0.68
2023-04-03T11:13:36.290Z,0.66
2023-04-03T11:14:35.344Z,0.65
2023-04-03T11:15:36.769Z,0.64
2023-04-03T11:16:43.500Z,0.66
2023-04-03T11:17:36.445Z,0.66
2023-04-03T11:18:35.380Z,0.66
2023-04-03T11:19:36.385Z,0.64
2023-04-03T11:20:36.487Z,0.66
2023-04-03T11:21:35.372Z,0.65
2023-04-03T11:22:35.379Z,0.68
2023-04-03T11:23:48.953Z,0.65
2023-04-03T11:24:36.347Z,0.65
2023-04-03T11:25:36.607Z,0.66
2023-04-03T11:26:36.348Z,0.66
2023-04-03T11:27:35.323Z,0.66
2023-04-03T11:28:36.369Z,0.66
2023-04-03T11:29:36.318Z,0.65
2023-04-03T11:30:36.315Z,0.63
2023-04-03T11:31:35.355Z,0.64
2023-04-03T11:32:36.310Z,0.64
2023-04-03T11:33:36.286Z,0.64
2023-04-03T11:34:36.274Z,0.61
2023-04-03T11:35:36.548Z,0.61
2023-04-03T11:36:36.748Z,0.61
2023-04-03T11:37:35.262Z,0.63
2023-04-03T11:38:36.261Z,0.62
2023-04-03T11:39:36.243Z,0.63
2023-04-03T11:40:36.233Z,0.60
2023-04-03T11:41:36.226Z,0.60
2023-04-03T11:42:35.254Z,0.61
2023-04-03T11:43:36.237Z,0.60
2023-04-03T11:44:36.228Z,0.61
2023-04-03T11:45:36.410Z,0.58
2023-04-03T11:46:35.242Z,0.59
2023-04-03T11:47:36.213Z,0.59
2023-04-03T11:48:35.252Z,0.58
2023-04-03T11:49:36.159Z,0.59
2023-04-03T11:50:36.192Z,0.58
2023-04-03T11:51:36.173Z,0.58
2023-04-03T11:52:35.280Z,0.58
2023-04-03T11:53:36.153Z,0.60
2023-04-03T11:54:44.036Z,0.58
2023-04-03T11:55:36.330Z,0.58
2023-04-03T11:56:36.124Z,0.58
2023-04-03T11:57:36.122Z,0.59
2023-04-03T11:58:36.104Z,0.58
2023-04-03T11:59:36.129Z,0.59
2023-04-03T12:00:36.103Z,0.61
2023-04-03T12:01:36.099Z,0.60
2023-04-03T12:02:47.510Z,0.60
2023-04-03T12:03:36.164Z,0.60
2023-04-03T12:04:35.078Z,0.61
2023-04-03T12:05:36.245Z,0.61
2023-04-03T12:06:36.096Z,0.61
2023-04-03T12:07:36.133Z,0.63
2023-04-03T12:08:36.160Z,0.64
2023-04-03T12:09:35.038Z,0.59
2023-04-03T12:10:36.042Z,0.58
2023-04-03T12:11:36.031Z,0.55
2023-04-03T12:12:35.052Z,0.55
2023-04-03T12:13:36.013Z,0.55
2023-04-03T12:14:36.032Z,0.54
2023-04-03T12:15:34.993Z,0.56
2023-04-03T12:16:35.093Z,0.56
2023-04-03T12:17:36.070Z,0.56
2023-04-03T12:18:35.996Z,0.55
2023-04-03T12:19:42.422Z,0.55
2023-04-03T12:20:35.965Z,0.55
2023-04-03T12:21:35.951Z,0.55
2023-04-03T12:22:35.976Z,0.55
2023-04-03T12:23:35.993Z,0.56
2023-04-03T12:24:36.058Z,0.55
2023-04-03T12:25:36.231Z,0.55
2023-04-03T12:26:45.831Z,0.57
2023-04-03T12:27:35.925Z,0.57
2023-04-03T12:28:34.955Z,0.58
2023-04-03T12:29:35.927Z,0.58
2023-04-03T12:30:34.915Z,0.57
2023-04-03T12:31:35.935Z,0.57
2023-04-03T12:32:34.947Z,0.57
2023-04-03T12:33:35.899Z,0.57
2023-04-03T12:34:35.879Z,0.57
2023-04-03T12:35:34.902Z,0.56
2023-04-03T12:36:34.880Z,0.56
2023-04-03T12:37:34.853Z,0.55
2023-04-03T12:38:35.847Z,0.56
2023-04-03T12:39:34.843Z,0.56
2023-04-03T12:40:35.961Z,0.56
2023-04-03T12:41:35.835Z,0.58
2023-04-03T12:42:35.824Z,0.58
2023-04-03T12:43:35.806Z,0.59
2023-04-03T12:44:35.811Z,0.58
2023-04-03T12:45:36.146Z,0.59
2023-04-03T12:46:34.963Z,0.58
2023-04-03T12:47:35.828Z,0.60
2023-04-03T12:48:35.775Z,0.60
2023-04-03T12:49:35.842Z,0.60
2023-04-03T12:50:35.779Z,0.59
2023-04-03T12:51:35.766Z,0.57
2023-04-03T12:52:35.782Z,0.58
2023-04-03T12:53:34.736Z,0.57
2023-04-03T12:54:35.743Z,0.58
2023-04-03T12:55:36.121Z,0.59
2023-04-03T12:56:35.844Z,0.59
2023-04-03T12:57:35.877Z,0.57
2023-04-03T12:58:35.720Z,0.59
2023-04-03T12:59:35.715Z,0.58
2023-04-03T13:00:35.718Z,0.57
2023-04-03T13:01:35.776Z,0.56
2023-04-03T13:02:35.853Z,0.57
2023-04-03T13:03:35.886Z,0.57
2023-04-03T13:04:35.921Z,0.57
2023-04-03T13:05:37.117Z,0.57
2023-04-03T13:06:36.036Z,0.58
2023-04-03T13:07:36.050Z,0.57
2023-04-03T13:08:36.073Z,0.59
2023-04-03T13:09:36.127Z,0.58
2023-04-03T13:10:36.174Z,0.58
2023-04-03T13:11:36.158Z,0.58
2023-04-03T13:12:36.323Z,0.56
2023-04-03T13:13:36.247Z,0.59
2023-04-03T13:14:36.300Z,0.59
2023-04-03T13:15:36.545Z,0.58
2023-04-03T13:16:36.373Z,0.58
2023-04-03T13:17:36.407Z,0.57
2023-04-03T13:18:35.430Z,0.56